Time;durP1;ratioP1;P1;durP2;ratioP2;P2;SDS_P1;SDS_P2;PMS_P1;PMS_P2;Temp;Humidity;BMP_temperature;BMP_pressure;BME280_temperature;BME280_humidity;BME280_pressure;Samples;Min_cycle;Max_cycle;Signal;HPM_P1;HPM_P2
2022/10/04 00:01:54;;;;;;;86.43;8.63;;;;;;;-147.98;100.00;69253.78;5059642;28;20431;-85
2022/10/04 00:04:30;;;;;;;59.05;8.13;;;;;;;-147.98;100.00;69253.78;5049797;28;20784;-85
2022/10/04 00:07:07;;;;;;;60.80;7.97;;;;;;;-147.98;100.00;69253.78;5043903;28;20435;-84
2022/10/04 00:09:45;;;;;;;35.55;7.85;;;;;;;-147.98;100.00;69253.78;5043850;28;20884;-85
2022/10/04 00:12:22;;;;;;;117.00;9.17;;;;;;;-147.98;100.00;69253.78;5063222;28;20491;-85
2022/10/04 00:14:59;;;;;;;50.22;7.97;;;;;;;-147.98;100.00;69253.78;5062417;28;20404;-84
2022/10/04 00:17:34;;;;;;;29.13;8.05;;;;;;;-147.98;100.00;69253.78;5045841;28;20418;-85
2022/10/04 00:20:49;;;;;;;45.33;7.85;;;;;;;-147.98;100.00;69253.78;5060299;28;20780;-85
2022/10/04 00:23:28;;;;;;;17.33;7.35;;;;;;;-147.98;100.00;69253.78;5067087;28;20420;-85
2022/10/04 00:26:04;;;;;;;105.22;8.52;;;;;;;-147.98;100.00;69253.78;5073389;28;20422;-85
2022/10/04 00:28:45;;;;;;;19.02;7.47;;;;;;;-147.98;100.00;69253.78;5055460;28;20459;-84
2022/10/04 00:31:23;;;;;;;96.38;8.27;;;;;;;-147.98;100.00;69253.78;5055106;28;20900;-85
2022/10/04 00:34:41;;;;;;;71.82;8.35;;;;;;;-147.98;100.00;69253.78;5058919;28;20437;-85
2022/10/04 00:37:15;;;;;;;30.73;7.85;;;;;;;-147.98;100.00;69253.78;5051018;28;20427;-84
2022/10/04 00:39:46;;;;;;;29.93;7.23;;;;;;;-147.98;100.00;69253.78;5047115;28;20411;-85
2022/10/04 00:42:39;;;;;;;55.15;7.88;;;;;;;-147.98;100.00;69253.78;5063576;28;20421;-85
2022/10/04 00:45:34;;;;;;;81.68;8.23;;;;;;;-147.98;100.00;69253.78;5055645;28;20413;-85
2022/10/04 00:48:36;;;;;;;68.43;8.23;;;;;;;-147.98;100.00;69253.78;5055434;28;20912;-85
2022/10/04 00:51:19;;;;;;;66.20;7.45;;;;;;;-147.98;100.00;69253.78;5067599;28;20450;-85
2022/10/04 00:53:59;;;;;;;140.23;8.95;;;;;;;-147.98;100.00;69253.78;5051302;28;20433;-85
2022/10/04 00:56:39;;;;;;;38.65;7.05;;;;;;;-147.98;100.00;69253.78;5061206;28;20755;-86
2022/10/04 00:59:30;;;;;;;145.63;8.27;;;;;;;-147.98;100.00;69253.78;5046524;28;20425;-85
2022/10/04 01:02:07;;;;;;;48.10;7.30;;;;;;;-147.98;100.00;69253.78;5071544;28;20429;-85
2022/10/04 01:04:44;;;;;;;26.23;6.78;;;;;;;-147.98;100.00;69253.78;5054656;28;20418;-85
2022/10/04 01:07:23;;;;;;;23.10;6.67;;;;;;;-147.98;100.00;69253.78;5054789;28;20434;-85
2022/10/04 01:09:55;;;;;;;53.05;7.15;;;;;;;-147.98;100.00;69253.78;5049136;28;20412;-85
2022/10/04 01:12:45;;;;;;;45.17;7.13;;;;;;;-147.98;100.00;69253.78;5073962;28;20434;-85
2022/10/04 01:15:28;;;;;;;26.73;6.90;;;;;;;-147.98;100.00;69253.78;5062030;28;20425;-85
2022/10/04 01:18:11;;;;;;;30.30;6.85;;;;;;;-147.98;100.00;69253.78;5066560;28;20423;-85
2022/10/04 01:20:57;;;;;;;19.48;7.00;;;;;;;-147.98;100.00;69253.78;5059649;28;20789;-85
2022/10/04 01:23:41;;;;;;;17.63;6.45;;;;;;;-147.98;100.00;69253.78;5051977;28;20414;-85
2022/10/04 01:26:38;;;;;;;32.38;6.63;;;;;;;-147.98;100.00;69253.78;5072753;28;20433;-85
2022/10/04 01:29:15;;;;;;;23.00;6.80;;;;;;;-147.98;100.00;69253.78;5060455;28;20467;-84
2022/10/04 01:31:50;;;;;;;27.08;6.55;;;;;;;-147.98;100.00;69253.78;5073480;28;20778;-84
2022/10/04 01:34:25;;;;;;;17.77;5.85;;;;;;;-147.98;100.00;69253.78;5059677;28;20421;-85
2022/10/04 01:37:00;;;;;;;18.13;6.60;;;;;;;-147.98;100.00;69253.78;5068112;28;20417;-84
2022/10/04 01:39:34;;;;;;;16.05;6.38;;;;;;;-147.98;100.00;69253.78;5062350;28;20416;-84
2022/10/04 01:42:14;;;;;;;13.32;5.63;;;;;;;-147.98;100.00;69253.78;5061919;28;20425;-85
2022/10/04 01:44:54;;;;;;;15.87;5.90;;;;;;;-147.98;100.00;69253.78;5080418;28;20421;-85
2022/10/04 01:47:33;;;;;;;11.43;5.60;;;;;;;-147.98;100.00;69253.78;5068385;28;20424;-85
2022/10/04 01:50:10;;;;;;;18.63;5.85;;;;;;;-147.98;100.00;69253.78;5069243;28;20436;-85
2022/10/04 01:52:49;;;;;;;17.13;5.40;;;;;;;-147.98;100.00;69253.78;5065709;28;20422;-85
2022/10/04 01:55:25;;;;;;;14.77;5.00;;;;;;;-147.98;100.00;69253.78;5058087;28;20429;-85
2022/10/04 01:57:58;;;;;;;11.40;4.88;;;;;;;-147.98;100.00;69253.78;5083301;28;20421;-84
2022/10/04 02:00:45;;;;;;;10.87;4.50;;;;;;;-147.98;100.00;69253.78;5062759;28;20502;-85
2022/10/04 02:03:22;;;;;;;12.48;4.82;;;;;;;-147.98;100.00;69253.78;5061374;28;20440;-85
2022/10/04 02:06:00;;;;;;;13.53;4.70;;;;;;;-147.98;100.00;69253.78;5045562;28;20426;-85
2022/10/04 02:08:38;;;;;;;13.63;4.70;;;;;;;-147.98;100.00;69253.78;5067504;28;20414;-85
2022/10/04 02:11:18;;;;;;;12.23;4.80;;;;;;;-147.98;100.00;69253.78;5066217;28;20419;-85
2022/10/04 02:13:49;;;;;;;11.40;4.13;;;;;;;-147.98;100.00;69253.78;5041828;28;20424;-84
2022/10/04 02:16:23;;;;;;;13.25;4.63;;;;;;;-147.98;100.00;69253.78;5064453;28;20425;-85
2022/10/04 02:18:57;;;;;;;11.03;4.53;;;;;;;-147.98;100.00;69253.78;5078960;28;20420;-85
2022/10/04 02:21:31;;;;;;;12.65;4.43;;;;;;;-147.98;100.00;69253.78;5086519;28;20813;-85
2022/10/04 02:24:05;;;;;;;10.00;4.18;;;;;;;-147.98;100.00;69253.78;5057594;28;20416;-85
2022/10/04 02:26:35;;;;;;;13.27;4.65;;;;;;;-147.98;100.00;69253.78;5069984;28;20422;-85
2022/10/04 02:29:09;;;;;;;9.82;4.50;;;;;;;-147.98;100.00;69253.78;5052011;28;20941;-85
2022/10/04 02:34:29;;;;;;;10.50;4.28;;;;;;;-147.98;100.00;69253.78;5023742;28;20431;-85
2022/10/04 02:37:04;;;;;;;11.05;4.30;;;;;;;-147.98;100.00;69253.78;5060305;28;20419;-85
2022/10/04 02:39:37;;;;;;;9.82;4.18;;;;;;;-147.98;100.00;69253.78;5065307;28;20425;-84
2022/10/04 02:42:14;;;;;;;12.93;4.03;;;;;;;-147.98;100.00;69253.78;5050724;28;20435;-84
2022/10/04 02:44:45;;;;;;;11.55;3.95;;;;;;;-147.98;100.00;69253.78;5042542;28;20420;-85
2022/10/04 02:47:22;;;;;;;10.55;3.97;;;;;;;-147.98;100.00;69253.78;5061944;28;20899;-85
2022/10/04 02:49:54;;;;;;;15.82;4.03;;;;;;;-147.98;100.00;69253.78;5058328;28;20414;-85
2022/10/04 02:52:31;;;;;;;12.13;3.90;;;;;;;-147.98;100.00;69253.78;5062207;28;20417;-84
2022/10/04 02:55:10;;;;;;;12.98;3.90;;;;;;;-147.98;100.00;69253.78;5077798;28;20774;-85
2022/10/04 02:57:45;;;;;;;11.80;3.85;;;;;;;-147.98;100.00;69253.78;5061650;28;20425;-85
2022/10/04 03:00:21;;;;;;;10.93;4.00;;;;;;;-147.98;100.00;69253.78;5078352;28;20433;-85
2022/10/04 03:03:15;;;;;;;12.07;4.03;;;;;;;-147.98;100.00;69253.78;5039109;28;20432;-84
2022/10/04 03:05:57;;;;;;;11.88;3.95;;;;;;;-147.98;100.00;69253.78;5047919;28;20430;-85
2022/10/04 03:08:27;;;;;;;11.63;3.75;;;;;;;-147.98;100.00;69253.78;5045449;28;20431;-84
2022/10/04 03:10:58;;;;;;;13.43;4.20;;;;;;;-147.98;100.00;69253.78;5045465;28;20423;-85
2022/10/04 03:13:33;;;;;;;13.00;4.20;;;;;;;-147.98;100.00;69253.78;5076241;28;20435;-85
2022/10/04 03:16:06;;;;;;;9.60;4.13;;;;;;;-147.98;100.00;69253.78;5084697;28;20430;-85
2022/10/04 03:18:36;;;;;;;14.00;4.15;;;;;;;-147.98;100.00;69253.78;5059802;28;21153;-84
2022/10/04 03:21:08;;;;;;;11.77;4.10;;;;;;;-147.98;100.00;69253.78;5059693;28;20418;-83
2022/10/04 03:23:42;;;;;;;12.65;4.20;;;;;;;-147.98;100.00;69253.78;5066590;28;20415;-84
2022/10/04 03:26:20;;;;;;;13.90;4.33;;;;;;;-147.98;100.00;69253.78;5082035;28;20870;-84
2022/10/04 03:28:55;;;;;;;15.20;4.53;;;;;;;-147.98;100.00;69253.78;5039276;28;20925;-83
2022/10/04 03:31:29;;;;;;;12.70;4.68;;;;;;;-147.98;100.00;69253.78;5036455;28;20431;-84
2022/10/04 03:34:03;;;;;;;15.13;4.40;;;;;;;-147.98;100.00;69253.78;5045735;28;20486;-84
2022/10/04 03:36:36;;;;;;;11.23;4.28;;;;;;;-147.98;100.00;69253.78;5084386;28;20454;-84
2022/10/04 03:39:11;;;;;;;12.93;4.30;;;;;;;-147.98;100.00;69253.78;5067053;28;20426;-84
2022/10/04 03:41:41;;;;;;;14.25;4.55;;;;;;;-147.98;100.00;69253.78;5044031;28;20432;-83
2022/10/04 03:44:18;;;;;;;12.38;4.35;;;;;;;-147.98;100.00;69253.78;5053042;28;20433;-84
2022/10/04 03:46:51;;;;;;;11.10;4.00;;;;;;;-147.98;100.00;69253.78;5046422;28;20419;-84
2022/10/04 03:49:32;;;;;;;14.40;4.40;;;;;;;-147.98;100.00;69253.78;5075504;28;20911;-84
2022/10/04 03:52:02;;;;;;;9.90;4.23;;;;;;;-147.98;100.00;69253.78;5060472;28;20511;-84
2022/10/04 03:54:36;;;;;;;14.37;4.60;;;;;;;-147.98;100.00;69253.78;5050657;28;20938;-84
2022/10/04 03:57:09;;;;;;;13.93;4.28;;;;;;;-147.98;100.00;69253.78;5047919;28;20432;-84
2022/10/04 03:59:44;;;;;;;12.95;4.53;;;;;;;-147.98;100.00;69253.78;5062219;28;20420;-84
2022/10/04 04:02:27;;;;;;;11.93;4.38;;;;;;;-147.98;100.00;69253.78;5042550;28;20421;-83
2022/10/04 04:05:09;;;;;;;11.73;4.30;;;;;;;-147.98;100.00;69253.78;5063949;28;20438;-83
2022/10/04 04:07:41;;;;;;;9.80;3.37;;;;;;;-147.98;100.00;69253.78;5053473;28;20420;-83
2022/10/04 04:10:20;;;;;;;9.63;3.80;;;;;;;-147.98;100.00;69253.78;5066709;28;20404;-83
2022/10/04 04:12:57;;;;;;;11.18;4.00;;;;;;;-147.98;100.00;69253.78;5064085;28;20816;-84
2022/10/04 04:15:30;;;;;;;12.57;3.60;;;;;;;-147.98;100.00;69253.78;5073915;28;20427;-83
2022/10/04 04:18:05;;;;;;;10.18;3.50;;;;;;;-147.98;100.00;69253.78;5058997;28;20412;-83
2022/10/04 04:20:39;;;;;;;9.48;3.53;;;;;;;-147.98;100.00;69253.78;5059729;28;20418;-84
2022/10/04 04:23:22;;;;;;;14.05;3.47;;;;;;;-147.98;100.00;69253.78;5057162;28;20419;-84
2022/10/04 04:25:55;;;;;;;14.18;3.22;;;;;;;-147.98;100.00;69253.78;5062983;28;20863;-84
2022/10/04 04:28:27;;;;;;;13.50;3.17;;;;;;;-147.98;100.00;69253.78;5064616;28;20432;-84
2022/10/04 04:31:05;;;;;;;9.98;2.60;;;;;;;-147.98;100.00;69253.78;5065416;28;20439;-83
2022/10/04 04:33:42;;;;;;;10.23;2.80;;;;;;;-147.98;100.00;69253.78;5047014;28;20411;-84
2022/10/04 04:36:12;;;;;;;17.10;3.03;;;;;;;-147.98;100.00;69253.78;5041719;28;20435;-83
2022/10/04 04:41:36;;;;;;;9.30;2.60;;;;;;;-147.98;100.00;69253.78;5043753;28;20518;-83
2022/10/04 04:44:17;;;;;;;12.98;2.70;;;;;;;-147.98;100.00;69253.78;5061210;28;20426;-84
2022/10/04 04:46:47;;;;;;;10.65;2.72;;;;;;;-147.98;100.00;69253.78;5040353;28;20428;-83
2022/10/04 04:49:22;;;;;;;13.10;2.80;;;;;;;-147.98;100.00;69253.78;5062424;28;20436;-84
2022/10/04 04:51:56;;;;;;;9.52;2.40;;;;;;;-147.98;100.00;69253.78;5079898;28;20428;-84
2022/10/04 04:54:33;;;;;;;11.35;2.83;;;;;;;-147.98;100.00;69253.78;5071221;28;20429;-83
2022/10/04 04:57:06;;;;;;;12.93;3.73;;;;;;;-147.98;100.00;69253.78;5052903;28;20427;-84
2022/10/04 04:59:35;;;;;;;11.30;3.47;;;;;;;-147.98;100.00;69253.78;5075217;28;20438;-83
2022/10/04 05:02:29;;;;;;;13.23;2.92;;;;;;;-147.98;100.00;69253.78;5060051;28;20415;-84
2022/10/04 05:05:22;;;;;;;11.68;2.78;;;;;;;-147.98;100.00;69253.78;5051000;28;20434;-84
2022/10/04 05:08:02;;;;;;;9.38;2.38;;;;;;;-147.98;100.00;69253.78;5066157;28;20413;-84
2022/10/04 05:10:37;;;;;;;8.20;2.33;;;;;;;-147.98;100.00;69253.78;5070651;28;20428;-83
2022/10/04 05:13:11;;;;;;;10.65;2.80;;;;;;;-147.98;100.00;69253.78;5043245;28;20423;-83
2022/10/04 05:15:45;;;;;;;13.30;2.80;;;;;;;-147.98;100.00;69253.78;5053920;28;20440;-84
2022/10/04 05:18:29;;;;;;;8.93;3.03;;;;;;;-147.98;100.00;69253.78;5048246;28;20419;-84
2022/10/04 05:21:10;;;;;;;9.77;2.50;;;;;;;-147.98;100.00;69253.78;5046021;28;20428;-84
2022/10/04 05:23:44;;;;;;;16.15;3.22;;;;;;;-147.98;100.00;69253.78;5083382;28;20419;-83
2022/10/04 05:26:26;;;;;;;11.57;3.00;;;;;;;-147.98;100.00;69253.78;5084401;28;20411;-83
2022/10/04 05:28:55;;;;;;;10.00;2.97;;;;;;;-147.98;100.00;69253.78;5053598;28;20416;-83
2022/10/04 05:31:38;;;;;;;9.70;2.95;;;;;;;-147.98;100.00;69253.78;5042107;28;20903;-84
2022/10/04 05:34:19;;;;;;;8.20;2.90;;;;;;;-147.98;100.00;69253.78;5066672;28;20421;-84
2022/10/04 05:37:09;;;;;;;7.95;3.03;;;;;;;-147.98;100.00;69253.78;5043548;28;20433;-83
2022/10/04 05:39:48;;;;;;;8.95;3.28;;;;;;;-147.98;100.00;69253.78;5051405;28;20413;-83
2022/10/04 05:42:22;;;;;;;11.38;3.00;;;;;;;-147.98;100.00;69253.78;5058325;28;20411;-83
2022/10/04 05:44:52;;;;;;;12.25;2.92;;;;;;;-147.98;100.00;69253.78;5049936;28;20454;-84
2022/10/04 05:47:27;;;;;;;16.52;3.50;;;;;;;-147.98;100.00;69253.78;5061417;28;20802;-83
2022/10/04 05:50:03;;;;;;;6.97;3.10;;;;;;;-147.98;100.00;69253.78;5064704;28;20427;-83
2022/10/04 05:52:38;;;;;;;11.52;5.82;;;;;;;-147.98;100.00;69253.78;5049860;28;20815;-84
2022/10/04 05:55:28;;;;;;;10.07;4.43;;;;;;;-147.98;100.00;69253.78;5049544;28;20416;-84
2022/10/04 05:58:20;;;;;;;10.45;3.72;;;;;;;-147.98;100.00;69253.78;5049661;28;20428;-84
2022/10/04 06:01:12;;;;;;;10.00;3.35;;;;;;;-147.98;100.00;69253.78;5072260;28;20923;-84
2022/10/04 06:03:55;;;;;;;10.00;4.10;;;;;;;-147.98;100.00;69253.78;5058956;28;20439;-83
2022/10/04 06:06:35;;;;;;;10.18;3.15;;;;;;;-147.98;100.00;69253.78;5052635;28;20780;-83
2022/10/04 06:09:13;;;;;;;7.82;3.03;;;;;;;-147.98;100.00;69253.78;5067398;28;20428;-83
2022/10/04 06:11:51;;;;;;;11.00;2.90;;;;;;;-147.98;100.00;69253.78;5049023;28;20777;-84
2022/10/04 06:14:55;;;;;;;6.85;2.55;;;;;;;-147.98;100.00;69253.78;5064594;28;20864;-83
2022/10/04 06:17:41;;;;;;;13.05;2.83;;;;;;;-147.98;100.00;69253.78;5058672;28;20425;-84
2022/10/04 06:20:54;;;;;;;9.57;2.97;;;;;;;-147.98;100.00;69253.78;5059781;28;20433;-84
2022/10/04 06:23:30;;;;;;;12.02;2.80;;;;;;;-147.98;100.00;69253.78;5062466;28;20448;-84
2022/10/04 06:26:09;;;;;;;11.10;2.80;;;;;;;-147.98;100.00;69253.78;5065704;28;20924;-85
2022/10/04 06:28:47;;;;;;;8.90;2.50;;;;;;;-147.98;100.00;69253.78;5056653;28;20439;-85
2022/10/04 06:31:45;;;;;;;13.82;3.00;;;;;;;-147.98;100.00;69253.78;5069515;28;20439;-84
2022/10/04 06:34:48;;;;;;;12.98;3.15;;;;;;;-147.98;100.00;69253.78;5046473;28;20424;-85
2022/10/04 06:37:38;;;;;;;10.87;3.20;;;;;;;-147.98;100.00;69253.78;5049429;28;20848;-84
2022/10/04 06:40:25;;;;;;;8.50;3.00;;;;;;;-147.98;100.00;69253.78;5047643;28;20432;-85
2022/10/04 06:43:15;;;;;;;13.32;3.30;;;;;;;-147.98;100.00;69253.78;5084057;28;20787;-84
2022/10/04 06:46:00;;;;;;;10.95;3.30;;;;;;;-147.98;100.00;69253.78;5079479;28;20431;-85
2022/10/04 06:48:46;;;;;;;14.43;3.30;;;;;;;-147.98;100.00;69253.78;5082642;28;20424;-84
2022/10/04 06:51:33;;;;;;;9.43;3.03;;;;;;;-147.98;100.00;69253.78;5074454;28;20426;-84
2022/10/04 06:54:17;;;;;;;12.02;3.47;;;;;;;-147.98;100.00;69253.78;5051421;28;20418;-85
2022/10/04 06:57:10;;;;;;;11.38;3.90;;;;;;;-147.98;100.00;69253.78;5048338;28;20416;-83
2022/10/04 07:00:05;;;;;;;8.82;3.80;;;;;;;-147.98;100.00;69253.78;5071385;28;20418;-84
2022/10/04 07:02:42;;;;;;;10.93;3.58;;;;;;;-147.98;100.00;69253.78;5084376;28;20436;-84
2022/10/04 07:05:23;;;;;;;13.23;3.60;;;;;;;-147.98;100.00;69253.78;5039950;28;20436;-83
2022/10/04 07:08:09;;;;;;;13.63;3.60;;;;;;;-147.98;100.00;69253.78;5062972;28;20424;-85
2022/10/04 07:10:51;;;;;;;12.35;4.03;;;;;;;-147.98;100.00;69253.78;5062940;28;20419;-84
2022/10/04 07:13:44;;;;;;;10.43;3.50;;;;;;;-147.98;100.00;69253.78;5061970;28;20895;-84
2022/10/04 07:16:32;;;;;;;9.73;3.50;;;;;;;-147.98;100.00;69253.78;5051528;28;20751;-84
2022/10/04 07:19:17;;;;;;;13.90;4.13;;;;;;;-147.98;100.00;69253.78;5033706;28;20445;-85
2022/10/04 07:21:55;;;;;;;10.80;3.50;;;;;;;-147.98;100.00;69253.78;5056218;28;20437;-84
2022/10/04 07:24:42;;;;;;;13.47;3.60;;;;;;;-147.98;100.00;69253.78;5042758;28;21305;-85
2022/10/04 07:27:19;;;;;;;12.18;4.40;;;;;;;-147.98;100.00;69253.78;5034542;28;20411;-85
2022/10/04 07:29:54;;;;;;;10.57;3.80;;;;;;;-147.98;100.00;69253.78;5046594;28;20438;-84
2022/10/04 07:32:30;;;;;;;11.38;3.83;;;;;;;-147.98;100.00;69253.78;5051531;28;20916;-85
2022/10/04 07:35:15;;;;;;;11.30;4.13;;;;;;;-147.98;100.00;69253.78;5021339;28;20431;-85
2022/10/04 07:37:55;;;;;;;14.00;4.10;;;;;;;-147.98;100.00;69253.78;5030869;28;20645;-85
2022/10/04 07:40:29;;;;;;;8.25;3.70;;;;;;;-147.98;100.00;69253.78;5030670;28;20970;-85
2022/10/04 07:43:07;;;;;;;11.40;3.70;;;;;;;-147.98;100.00;69253.78;5015092;28;20443;-85
2022/10/04 07:45:44;;;;;;;11.13;4.30;;;;;;;-147.98;100.00;69253.78;5031203;28;22008;-84
2022/10/04 07:48:22;;;;;;;11.30;3.90;;;;;;;-147.98;100.00;69253.78;5016803;28;20481;-84
2022/10/04 07:51:03;;;;;;;12.05;4.13;;;;;;;-147.98;100.00;69253.78;5050190;28;20435;-84
2022/10/04 07:53:42;;;;;;;12.48;3.97;;;;;;;-147.98;100.00;69253.78;5023735;28;21070;-84
2022/10/04 07:56:15;;;;;;;15.40;4.00;;;;;;;-147.98;100.00;69253.78;5029249;28;20431;-84
2022/10/04 07:58:54;;;;;;;16.40;4.28;;;;;;;-147.98;100.00;69253.78;5036510;28;20431;-84
2022/10/04 08:01:37;;;;;;;11.80;4.10;;;;;;;-147.98;100.00;69253.78;5022784;28;20428;-84
2022/10/04 08:04:27;;;;;;;9.70;3.80;;;;;;;-147.98;100.00;69253.78;5013017;28;20431;-84
2022/10/04 08:07:02;;;;;;;13.25;3.70;;;;;;;-147.98;100.00;69253.78;5037471;28;20440;-84
2022/10/04 08:09:40;;;;;;;12.82;4.05;;;;;;;-147.98;100.00;69253.78;5047000;28;20423;-84
2022/10/04 08:12:19;;;;;;;12.25;4.00;;;;;;;-147.98;100.00;69253.78;5032333;28;20427;-84
2022/10/04 08:15:16;;;;;;;9.65;4.18;;;;;;;-147.98;100.00;69253.78;5019380;28;20435;-84
2022/10/04 08:18:00;;;;;;;12.75;4.25;;;;;;;-147.98;100.00;69253.78;5010490;28;20428;-84
2022/10/04 08:20:47;;;;;;;14.77;4.30;;;;;;;-147.98;100.00;69253.78;5017774;28;20428;-84
2022/10/04 08:23:46;;;;;;;11.15;4.38;;;;;;;-147.98;100.00;69253.78;5017481;28;21953;-83
2022/10/04 08:26:40;;;;;;;13.93;4.20;;;;;;;-147.98;100.00;69253.78;5036520;28;20440;-84
2022/10/04 08:29:51;;;;;;;11.27;4.32;;;;;;;-147.98;100.00;69253.78;5033861;28;20428;-83
2022/10/04 08:32:40;;;;;;;11.38;4.10;;;;;;;-147.98;100.00;69253.78;5032429;28;20423;-85
2022/10/04 08:35:48;;;;;;;12.65;4.00;;;;;;;-147.98;100.00;69253.78;5037297;28;20423;-83
2022/10/04 08:38:42;;;;;;;11.67;4.10;;;;;;;-147.98;100.00;69253.78;5063467;28;20422;-83
2022/10/04 08:41:45;;;;;;;12.00;4.65;;;;;;;-147.98;100.00;69253.78;5031738;28;20933;-83
2022/10/04 08:44:55;;;;;;;11.80;4.10;;;;;;;-147.98;100.00;69253.78;5035312;28;20950;-84
2022/10/04 08:48:02;;;;;;;11.60;4.47;;;;;;;-147.98;100.00;69253.78;5015307;28;20965;-84
2022/10/04 08:51:06;;;;;;;12.90;4.63;;;;;;;-147.98;100.00;69253.78;5043391;28;21190;-83
2022/10/04 08:54:16;;;;;;;13.18;4.32;;;;;;;-147.98;100.00;69253.78;5023813;28;20752;-84
2022/10/04 08:57:04;;;;;;;14.80;3.95;;;;;;;-147.98;100.00;69253.78;5036481;28;20780;-83
2022/10/04 09:00:08;;;;;;;13.27;4.10;;;;;;;-147.98;100.00;69253.78;5035322;28;20415;-84
2022/10/04 09:03:12;;;;;;;11.35;4.20;;;;;;;-147.98;100.00;69253.78;5033746;28;20431;-84
2022/10/04 09:05:56;;;;;;;12.15;4.65;;;;;;;-147.98;100.00;69253.78;5044031;28;22120;-83
2022/10/04 09:09:13;;;;;;;13.52;4.70;;;;;;;-147.98;100.00;69253.78;5040220;28;20423;-85
2022/10/04 09:12:06;;;;;;;12.00;3.85;;;;;;;-147.98;100.00;69253.78;5024624;28;20424;-83
2022/10/04 09:15:19;;;;;;;16.88;4.32;;;;;;;-147.98;100.00;69253.78;5019323;28;21484;-84
2022/10/04 09:17:54;;;;;;;12.53;4.40;;;;;;;-147.98;100.00;69253.78;5021055;28;20802;-85
2022/10/04 09:20:42;;;;;;;11.30;4.00;;;;;;;-147.98;100.00;69253.78;5025067;28;20776;-84
2022/10/04 09:23:37;;;;;;;13.18;4.50;;;;;;;-147.98;100.00;69253.78;5026920;28;20932;-84
2022/10/04 09:26:20;;;;;;;14.53;4.50;;;;;;;-147.98;100.00;69253.78;5037530;28;20431;-83
2022/10/04 09:29:19;;;;;;;14.30;4.38;;;;;;;-147.98;100.00;69253.78;5052525;28;20474;-85
2022/10/04 09:32:20;;;;;;;16.27;4.65;;;;;;;-147.98;100.00;69253.78;5041890;28;21229;-84
2022/10/04 09:35:15;;;;;;;11.05;4.40;;;;;;;-147.98;100.00;69253.78;5017042;28;20421;-84
2022/10/04 09:38:04;;;;;;;13.32;4.40;;;;;;;-147.98;100.00;69253.78;5039536;28;20543;-84
2022/10/04 09:41:14;;;;;;;11.70;4.35;;;;;;;-147.98;100.00;69253.78;5029393;28;20896;-83
2022/10/04 09:44:15;;;;;;;13.30;4.75;;;;;;;-147.98;100.00;69253.78;4997778;28;20434;-83
2022/10/04 09:47:06;;;;;;;12.90;5.00;;;;;;;-147.98;100.00;69253.78;4978356;28;20439;-83
2022/10/04 09:50:17;;;;;;;12.70;4.70;;;;;;;-147.98;100.00;69253.78;5032354;28;20517;-84
2022/10/04 09:52:59;;;;;;;13.10;5.00;;;;;;;-147.98;100.00;69253.78;5038159;28;20927;-83
2022/10/04 09:55:48;;;;;;;12.68;4.30;;;;;;;-147.98;100.00;69253.78;5047777;28;20423;-84
2022/10/04 09:58:52;;;;;;;11.55;4.22;;;;;;;-147.98;100.00;69253.78;5032261;28;20423;-83
2022/10/04 10:01:35;;;;;;;12.47;4.30;;;;;;;-147.98;100.00;69253.78;5042428;28;20790;-83
2022/10/04 10:04:46;;;;;;;16.67;5.07;;;;;;;-147.98;100.00;69253.78;5022696;28;20786;-84
2022/10/04 10:07:39;;;;;;;13.13;4.32;;;;;;;-147.98;100.00;69253.78;5037745;28;20436;-84
2022/10/04 10:13:41;;;;;;;12.48;4.00;;;;;;;-147.98;100.00;69253.78;5039371;28;20438;-84
2022/10/04 10:16:39;;;;;;;11.40;4.05;;;;;;;-147.98;100.00;69253.78;5038097;28;20667;-84
2022/10/04 10:19:30;;;;;;;12.47;4.57;;;;;;;-147.98;100.00;69253.78;5017592;28;20431;-84
2022/10/04 10:22:26;;;;;;;11.40;3.88;;;;;;;-147.98;100.00;69253.78;5040486;28;20423;-84
2022/10/04 10:25:12;;;;;;;14.55;4.40;;;;;;;-147.98;100.00;69253.78;5042300;28;20421;-84
2022/10/04 10:28:00;;;;;;;19.70;7.82;;;;;;;-147.98;100.00;69253.78;5021192;28;20910;-85
2022/10/04 10:30:50;;;;;;;120.63;54.35;;;;;;;-147.98;100.00;69253.78;5017836;28;20442;-84
2022/10/04 10:33:51;;;;;;;10.80;4.10;;;;;;;-147.98;100.00;69253.78;5017330;28;20426;-83
2022/10/04 10:36:47;;;;;;;16.10;4.65;;;;;;;-147.98;100.00;69253.78;5027809;28;20443;-84
2022/10/04 10:39:43;;;;;;;35.72;17.23;;;;;;;-147.98;100.00;69253.78;5056308;28;20427;-86
2022/10/04 10:42:32;;;;;;;16.20;6.17;;;;;;;-147.98;100.00;69253.78;5031102;28;20968;-83
2022/10/04 10:45:15;;;;;;;15.85;5.57;;;;;;;-147.98;100.00;69253.78;5031019;28;20939;-84
2022/10/04 10:47:55;;;;;;;13.27;5.95;;;;;;;-147.98;100.00;69253.78;5012532;28;20490;-83
2022/10/04 10:50:59;;;;;;;15.13;5.25;;;;;;;-147.98;100.00;69253.78;5037940;28;20904;-84
2022/10/04 10:54:06;;;;;;;13.88;5.10;;;;;;;-147.98;100.00;69253.78;5034825;28;20427;-84
2022/10/04 10:56:50;;;;;;;22.95;11.60;;;;;;;-147.98;100.00;69253.78;5037735;28;20434;-83
2022/10/04 11:00:13;;;;;;;24.83;12.07;;;;;;;-147.98;100.00;69253.78;5025494;28;21366;-84
2022/10/04 11:03:24;;;;;;;13.47;4.93;;;;;;;-147.98;100.00;69253.78;5023153;28;20440;-83
2022/10/04 11:06:16;;;;;;;13.30;5.57;;;;;;;;;;5072386;27;20852;-84
2022/10/04 11:09:10;;;;;;;12.93;4.88;;;;;;;;;;5079865;28;20913;-83
2022/10/04 11:11:54;;;;;;;14.00;5.05;;;;;;;;;;5068472;28;20896;-84
2022/10/04 11:14:45;;;;;;;14.57;4.88;;;;;;;;;;5074361;28;20444;-83
2022/10/04 11:17:27;;;;;;;19.90;4.82;;;;;;;;;;5068366;28;20984;-86
2022/10/04 11:20:14;;;;;;;13.02;4.97;;;;;;;;;;5072108;28;20440;-83
2022/10/04 11:23:02;;;;;;;13.60;4.13;;;;;;;;;;5072033;28;20937;-84
2022/10/04 11:25:46;;;;;;;12.93;4.32;;;;;;;;;;5081692;28;20417;-82
2022/10/04 11:28:25;;;;;;;17.00;5.22;;;;;;;;;;5052820;28;20430;-82
2022/10/04 11:31:18;;;;;;;11.65;4.95;;;;;;;;;;5063077;28;20425;-82
2022/10/04 11:34:07;;;;;;;13.88;4.75;;;;;;;;;;5066257;28;20422;-83
2022/10/04 11:36:46;;;;;;;14.50;4.68;;;;;;;;;;5032879;28;20922;-84
2022/10/04 11:39:37;;;;;;;9.15;4.18;;;;;;;;;;5062767;28;20430;-83
2022/10/04 11:42:14;;;;;;;15.07;4.40;;;;;;;;;;5063341;28;20501;-82
2022/10/04 11:45:07;;;;;;;11.20;4.63;;;;;;;;;;5056175;28;20420;-81
2022/10/04 11:47:39;;;;;;;10.50;3.93;;;;;;;;;;5055371;28;20514;-82
2022/10/04 11:50:23;;;;;;;16.02;4.05;;;;;;;;;;5046435;28;21123;-82
2022/10/04 11:53:08;;;;;;;10.88;3.80;;;;;;;;;;5047826;28;20435;-84
2022/10/04 11:56:05;;;;;;;10.07;3.92;;;;;;;;;;5014660;28;20435;-83
2022/10/04 11:58:51;;;;;;;13.13;3.60;;;;;;;;;;5059689;28;21560;-84
2022/10/04 12:01:30;;;;;;;13.55;3.53;;;;;;;;;;5048861;28;20429;-85
2022/10/04 12:04:23;;;;;;;11.70;3.90;;;;;;;;;;5054757;28;20907;-83
2022/10/04 12:07:05;;;;;;;12.52;3.63;;;;;;;;;;5071029;28;20401;-84
2022/10/04 12:09:40;;;;;;;10.52;3.42;;;;;;;;;;5048487;28;20433;-85
2022/10/04 12:12:36;;;;;;;11.15;3.70;;;;;;;;;;5070878;28;20420;-85
2022/10/04 12:15:22;;;;;;;11.20;3.97;;;;;;;;;;5053572;28;20413;-84
2022/10/04 12:18:12;;;;;;;12.70;4.10;;;;;;;;;;5042560;28;20432;-84
2022/10/04 12:20:52;;;;;;;14.63;3.50;;;;;;;;;;5061171;28;20430;-83
2022/10/04 12:23:39;;;;;;;10.83;3.47;;;;;;;;;;5063077;28;20824;-85
2022/10/04 12:26:31;;;;;;;9.73;3.60;;;;;;;;;;5034463;28;21153;-85
2022/10/04 12:29:07;;;;;;;9.60;3.60;;;;;;;;;;5043586;28;20426;-84
2022/10/04 12:31:41;;;;;;;11.07;3.28;;;;;;;;;;5045770;28;20476;-84
2022/10/04 12:34:18;;;;;;;11.65;3.42;;;;;;;;;;5059210;28;20543;-83
2022/10/04 12:37:09;;;;;;;10.32;3.17;;;;;;;;;;5047630;28;20442;-85
2022/10/04 12:39:46;;;;;;;10.77;3.00;;;;;;;;;;5050679;28;20424;-83
2022/10/04 12:42:24;;;;;;;12.93;3.22;;;;;;;;;;5072142;28;20933;-83
2022/10/04 12:45:12;;;;;;;8.93;2.80;;;;;;;;;;5054734;28;20425;-84
2022/10/04 12:47:49;;;;;;;13.48;2.90;;;;;;;;;;5038598;28;20425;-83
2022/10/04 12:50:24;;;;;;;11.52;3.00;;;;;;;;;;5039942;28;20797;-85
2022/10/04 12:52:54;;;;;;;8.07;3.40;;;;;;;;;;5063266;28;20430;-84